METAR (acronimo di METeorological Air Report) è un messaggio meteo emesso nella maggior parte dei casi in ambito aeroportuale

GMME - Rabat, Morocco
Ultimo Aggiornamento: Lunedì 03 Agosto 2020 20:00 CEST
Parzialmente Nuvoloso
Parzialmente Nuvoloso
 Wind from Ovest-Nord-Ovest
Vento: Ovest-Nord-Ovest 17 km/h
Temperatura: 24°C
Punto di Rugiada: 18°C
Umidità: 69%
Barometro: 1014 hPa
Nuvole: Parzialmente Nuvoloso
Visibilità: 8 km
2020/08/03 18:00 GMME 031800Z 29009KT 8000 NSC 24/18 Q1014 NOSIG
DTTA - Tunis-Carthage International Airport, Tunisia
Ultimo Aggiornamento: Lunedì 03 Agosto 2020 20:00 CEST
Temporale, Qualche Nuvola
Temporale, Qualche Nuvola
 Wind from varies
Vento: variabile 4 km/h
Temperatura: 28°C
Heat Index: 30°C
Punto di Rugiada: 21°C
Umidità: 66%
Barometro: 1009 hPa
Condizioni: Temporale
Nuvole: Qualche Nuvola
Visibilità: 8 km
Nuvole nel Dettaglio: Parzialmente Nuvoloso 914 m
Qualche Nuvola 1006 m
2020/08/03 18:00 DTTA 031800Z VRB02KT 8000 TS SCT030 FEW033CB 28/21 Q1009
HSSS - Khartoum, Sudan
Ultimo Aggiornamento: Lunedì 03 Agosto 2020 20:00 CEST
Sereno
Sereno
 Wind from Sud
Vento: Sud 13 km/h
Temperatura: 32°C
Heat Index: 33°C
Punto di Rugiada: 18°C
Umidità: 43%
Barometro: 1011 hPa
Condizioni: Sereno
Visibilità: superiore a 10 km
2020/08/03 18:00 HSSS 031800Z 18007KT CAVOK 32/18 Q1011 NOSIG
 
DAAG - Algiers Houari Boumediene Airport, Algeria
Ultimo Aggiornamento: Lunedì 03 Agosto 2020 19:00 CEST
Prevalentemente Nuvoloso
Prevalentemente Nuvoloso
 Wind from Nord
Vento: Nord 19 km/h
Temperatura: 30°C
Heat Index: 33°C
Punto di Rugiada: 22°C
Umidità: 62%
Barometro: 1010 hPa
Nuvole: Prevalentemente Nuvoloso
Visibilità: 10 km
Nuvole nel Dettaglio: Qualche Nuvola 792 m
Prevalentemente Nuvoloso 2530 m
2020/08/03 17:00 DAAG 031700Z 36010KT 320V030 9999 FEW026 BKN083 30/22 Q1010
HECA - Cairo International Airport, Egypt
Ultimo Aggiornamento: Lunedì 03 Agosto 2020 20:00 CEST
Sereno
Sereno
 Wind from Nord-Nord-Ovest
Vento: Nord-Nord-Ovest 17 km/h
Temperatura: 33°C
Punto di Rugiada: 16°C
Umidità: 36%
Barometro: 1008 hPa
Condizioni: Sereno
Visibilità: superiore a 10 km
2020/08/03 18:00 HECA 031800Z 34009KT CAVOK 33/16 Q1008 NOSIG
FTTJ - N’Djamena, Chad
Ultimo Aggiornamento: Lunedì 03 Agosto 2020 19:00 CEST
Qualche Nuvola
Qualche Nuvola
 Wind from Ovest-Sud-Ovest
Vento: Ovest-Sud-Ovest 7 km/h
Temperatura: 27°C
Heat Index: 30°C
Punto di Rugiada: 23°C
Umidità: 79%
Barometro: 1010 hPa
Nuvole: Qualche Nuvola
Visibilità: 8 km
Nuvole nel Dettaglio: Qualche Nuvola 610 m
Parzialmente Nuvoloso 914 m
Qualche Nuvola 1219 m
2020/08/03 17:00 FTTJ 031700Z 25004KT 250V310 8000 FEW020 SCT030 FEW040CB 27/23 Q1010 NOSIG
 
FEFF - Bangui, Central African Republic
Ultimo Aggiornamento: Lunedì 03 Agosto 2020 19:00 CEST
Pioggia Leggera, Qualche Nuvola
Pioggia Leggera, Qualche Nuvola
 Wind from Nord-Ovest
Vento: Nord-Ovest 7 km/h
Temperatura: 22°C
Punto di Rugiada: 21°C
Umidità: 94%
Barometro: 1013 hPa
Condizioni: Pioggia Leggera
Nuvole: Qualche Nuvola
Visibilità: 8 km
Nuvole nel Dettaglio: Parzialmente Nuvoloso 305 m
Qualche Nuvola 1006 m
2020/08/03 17:00 FEFF 031700Z 32004KT 8000 -RA SCT010 FEW033CB 22/21 Q1013 NOSIG
HBBA - Bujumbura, Burundi
Ultimo Aggiornamento: Lunedì 03 Agosto 2020 07:00 CEST
Dati non Recenti
Qualche Nuvola
Qualche Nuvola
 Wind from calm
Vento: Calma
Temperatura: 17°C
Punto di Rugiada: 14°C
Umidità: 83%
Barometro: 1018 hPa
Nuvole: Qualche Nuvola
Visibilità: 9 km
Nuvole nel Dettaglio: Qualche Nuvola 610 m
2020/08/03 05:00 HBBA 030500Z 000000KT 9000 FEW020TCU 17/14 Q1018 NOSIG
FMEE - Saint-Denis, Reunion
Ultimo Aggiornamento: Lunedì 03 Agosto 2020 20:00 CEST
Prevalentemente Nuvoloso
Prevalentemente Nuvoloso
 Wind from Est-Sud-Est
Vento: Est-Sud-Est 28 km/h
Temperatura: 20°C
Punto di Rugiada: 11°C
Umidità: 56%
Barometro: 1025 hPa
Nuvole: Prevalentemente Nuvoloso
Visibilità: 10 km
Nuvole nel Dettaglio: Prevalentemente Nuvoloso 1463 m
2020/08/03 18:00 FMEE 031800Z AUTO 12015KT 9999 BKN048 20/11 Q1025 NOSIG
 
DIAP - Abidjan, Ivory coast
Ultimo Aggiornamento: Lunedì 03 Agosto 2020 19:30 CEST
Qualche Nuvola
Qualche Nuvola
 Wind from Ovest-Sud-Ovest
Vento: Ovest-Sud-Ovest 15 km/h
Temperatura: 26°C
Punto di Rugiada: 22°C
Umidità: 79%
Barometro: 1015 hPa
Nuvole: Qualche Nuvola
Visibilità: 10 km
Nuvole nel Dettaglio: Qualche Nuvola 396 m
2020/08/03 17:30 DIAP 031730Z 24008KT 9999 FEW013 26/22 Q1015 NOSIG
GUCY - Conakry, Guinea
Ultimo Aggiornamento: Lunedì 03 Agosto 2020 18:00 CEST
Dati non Recenti
Prevalentemente Nuvoloso
Prevalentemente Nuvoloso
 Wind from Sud-Sud-Ovest
Vento: Sud-Sud-Ovest 22 km/h
Temperatura: 27°C
Heat Index: 31°C
Punto di Rugiada: 24°C
Umidità: 84%
Barometro: 1015 hPa
Nuvole: Prevalentemente Nuvoloso
Visibilità: 10 km
Nuvole nel Dettaglio: Prevalentemente Nuvoloso 457 m
Prevalentemente Nuvoloso 3353 m
2020/08/03 16:00 GUCY 031600Z 20012KT 9999 BKN015 BKN110 27/24 Q1015 NOSIG
GABS - Bamako, Mali
Ultimo Aggiornamento: Lunedì 03 Agosto 2020 19:30 CEST
Temporale Leggero, Pioggia, Qualche Nuvola
Temporale Leggero, Pioggia, Qualche Nuvola
 Wind from Nord-Nord-Est
Vento: Nord-Nord-Est 7 km/h
Temperatura: 22°C
Punto di Rugiada: 21°C
Umidità: 94%
Barometro: 1016 hPa
Condizioni: Temporale Leggero, Pioggia
Nuvole: Qualche Nuvola
Visibilità: 8 km
Nuvole nel Dettaglio: Qualche Nuvola 610 m
Qualche Nuvola 762 m
2020/08/03 17:30 GABS 031730Z 02004KT 310V080 8000 -TSRA FEW020 FEW025CB 22/21 Q1016 NOSIG
 
DRRN - Niamey, Niger
Ultimo Aggiornamento: Lunedì 03 Agosto 2020 19:00 CEST
Qualche Nuvola
Qualche Nuvola
 Wind from Ovest-Sud-Ovest
Vento: Ovest-Sud-Ovest 15 km/h
Temperatura: 28°C
Heat Index: 31°C
Punto di Rugiada: 23°C
Umidità: 74%
Barometro: 1012 hPa
Nuvole: Qualche Nuvola
Visibilità: 10 km
Nuvole nel Dettaglio: Parzialmente Nuvoloso 488 m
Qualche Nuvola 792 m
2020/08/03 17:00 DRRN 031700Z 24008KT 9999 SCT016 FEW026CB 28/23 Q1012 BECMG 06020G35KT 2000 SQ +TSRA BKN013
DFFD - Ouagadougou, Burkina Faso
Ultimo Aggiornamento: Lunedì 03 Agosto 2020 19:00 CEST
Qualche Nuvola
Qualche Nuvola
 Wind from Sud-Ovest
Vento: Sud-Ovest 19 km/h
Temperatura: 27°C
Heat Index: 29°C
Punto di Rugiada: 22°C
Umidità: 74%
Barometro: 1012 hPa
Nuvole: Qualche Nuvola
Visibilità: 10 km
Nuvole nel Dettaglio: Parzialmente Nuvoloso 610 m
Qualche Nuvola 1006 m
2020/08/03 17:00 DFFD 031700Z 22010KT 190V250 9999 SCT020 FEW033CB 27/22 Q1012 TEMPO TS
DNMM - Lagos, Nigeria
Ultimo Aggiornamento: Lunedì 03 Agosto 2020 19:00 CEST
Qualche Nuvola
Qualche Nuvola
 Wind from Sud-Ovest
Vento: Sud-Ovest 28 km/h
Temperatura: 27°C
Heat Index: 29°C
Punto di Rugiada: 22°C
Umidità: 74%
Barometro: 1015 hPa
Nuvole: Qualche Nuvola
Visibilità: 10 km
Nuvole nel Dettaglio: Qualche Nuvola 335 m
2020/08/03 17:00 DNMM 031700Z 22015KT 9999 FEW011 27/22 Q1015 NOSIG
 
HKJK - Nairobi Jomo Kenyatta International Airport, Kenya
Ultimo Aggiornamento: Lunedì 03 Agosto 2020 19:30 CEST
Prevalentemente Nuvoloso
Prevalentemente Nuvoloso
 Wind from Est-Sud-Est
Vento: Est-Sud-Est 9 km/h
Temperatura: 19°C
Punto di Rugiada: 9°C
Umidità: 52%
Barometro: 1024 hPa
Nuvole: Prevalentemente Nuvoloso
Visibilità: 10 km
Nuvole nel Dettaglio: Qualche Nuvola 671 m
Prevalentemente Nuvoloso 2134 m
2020/08/03 17:30 HKJK 031730Z 12005KT 9999 FEW022 BKN070 19/09 Q1024 NOSIG
FZAA - Kinshasa, Congo
Ultimo Aggiornamento: Lunedì 03 Agosto 2020 19:00 CEST
Parzialmente Nuvoloso
Parzialmente Nuvoloso
 Wind from calm
Vento: Calma
Temperatura: 28°C
Heat Index: 29°C
Punto di Rugiada: 20°C
Umidità: 62%
Barometro: 1013 hPa
Nuvole: Parzialmente Nuvoloso
Visibilità: 6 km
Nuvole nel Dettaglio: Parzialmente Nuvoloso 549 m
2020/08/03 17:00 FZAA 031700Z 00000KT 6000 SCT018 28/20 Q1013 NOSIG
FLKK - Lusaka, Zambia
Ultimo Aggiornamento: Lunedì 03 Agosto 2020 15:00 CEST
Dati non Recenti
Parzialmente Nuvoloso
Parzialmente Nuvoloso
 Wind from Est
Vento: Est 19 km/h
Temperatura: 23°C
Punto di Rugiada: 8°C
Umidità: 38%
Barometro: 1025 hPa
Nuvole: Parzialmente Nuvoloso
Visibilità: 10 km
Nuvole nel Dettaglio: Parzialmente Nuvoloso 1067 m
2020/08/03 13:00 FLKK 031300Z 08010KT 9999 SCT035 23/08 Q1025
 
FAOR - Johannesburg, South Africa
Ultimo Aggiornamento: Lunedì 03 Agosto 2020 20:00 CEST
Sereno
Sereno
 Wind from Nord-Ovest
Vento: Nord-Ovest 11 km/h
Temperatura: 15°C
Punto di Rugiada: -5°C
Umidità: 25%
Barometro: 1030 hPa
Condizioni: Sereno
Visibilità: superiore a 10 km
2020/08/03 18:00 FAOR 031800Z 31006KT CAVOK 15/M05 Q1030 NOSIG
FACT - Cape Town, South Africa
Ultimo Aggiornamento: Lunedì 03 Agosto 2020 20:00 CEST
Pioggia Leggera, Prevalentemente Nuvoloso
Pioggia Leggera, Prevalentemente Nuvoloso
 Wind from Nord-Ovest
Vento: Nord-Ovest 15 km/h
Temperatura: 16°C
Punto di Rugiada: 14°C
Umidità: 88%
Barometro: 1022 hPa
Condizioni: Pioggia Leggera
Nuvole: Prevalentemente Nuvoloso
Visibilità: 7 km
Nuvole nel Dettaglio: Prevalentemente Nuvoloso 610 m
2020/08/03 18:00 FACT 031800Z 31008KT 7000 -RA BKN020 16/14 Q1022 NOSIG
FIMP - Mauritius Sir Seewoosagur Ramgoolam International Airport, Mauritius
Ultimo Aggiornamento: Lunedì 03 Agosto 2020 20:00 CEST
Acquazzoni nelle vicinanze, Prevalentemente Nuvoloso
Acquazzoni nelle vicinanze, Prevalentemente Nuvoloso
 Wind from Sud-Sud-Est
Vento: Sud-Sud-Est 28 km/h
Temperatura: 21°C
Punto di Rugiada: 15°C
Umidità: 69%
Barometro: 1025 hPa
Condizioni: Acquazzoni nelle vicinanze
Nuvole: Prevalentemente Nuvoloso
Visibilità: 10 km
Nuvole nel Dettaglio: Parzialmente Nuvoloso 488 m
Prevalentemente Nuvoloso 1524 m
2020/08/03 18:00 FIMP 031800Z 15015KT 9999 VCSH SCT016 BKN050 21/15 Q1025